AirNav   Air Wisconsin Up To $57,000 Bonus
 
 981 users online  

78PN Farmington Township Airpark Heliport
Leeper, Pennsylvania, USA

GOING TO LEEPER?


FAA INFORMATION EFFECTIVE 07 NOVEMBER 2019

Location

FAA Identifier: 78PN
Lat/Long: 41-22-24.6800N 079-18-23.7900W
41-22.411333N 079-18.396500W
41.3735222,-79.3066083
(estimated)
Elevation: 1620 ft. / 494 m (estimated)
From city: 1 mile NW of LEEPER, PA
Time zone: UTC -5 (UTC -4 during Daylight Saving Time)
Zip code: 16233

Heliport Operations

Heliport use: Private use. Permission required prior to landing
Activation date: 03/2009
Control tower: no
ARTCC: CLEVELAND CENTER
FSS: ALTOONA FLIGHT SERVICE STATION
Attendance: UNATNDD
Wind indicator: yes
Segmented circle: yes

Heliport Communications

WX AWOS-3 at AXQ (11 nm SW): 118.275 (814-227-2899)

Nearby radio navigation aids

VOR radial/distance  VOR name  Freq  Var
CIPr033/15.2CLARION VOR/DME112.9006W
TDTr175/21.0TIDIOUTE VORTAC117.6009W
FKLr105/(25.1)FRANKLIN VOR109.6006W
BFDr238/39.6BRADFORD VOR/DME116.6007W

 
NDB name  Hdg/Dist  Freq  Var  ID
CORRY165/35.825810WORJ --- .-. .---

Heliport Services

Runway Information

Helipad H1

Dimensions: 50 x 50 ft. / 15 x 15 m
Surface: asphalt
Latitude: 41-22.411333N
Longitude: 079-18.396500W
Elevation: 1620.0 ft.
Traffic pattern: leftleft

Heliport Ownership and Management from official FAA records

Ownership: Privately-owned
Owner: FARMINGTON TOWNSHIP
P.O.BOX 148
LEEPER, PA 16233
Phone 814-744-8523
Manager: DAVID CRISE, CHAIRMAN
P.O. BOX 148
LEEPER, PA 16233
Phone 814-744-8523

Additional Remarks

20 FT BALLFIELD AND POLES 220 FT N OF HELIPORT; 40 FT TREES 300 FT NW OF HELIPORT.
FOR CD CTC CLEVELAND ARTCC AT 440-774-0234.

Instrument Procedures

There are no published instrument procedures at 78PN.

Some nearby airports with instrument procedures:

KAXQ - Clarion County Airport (11 nm SW)
KDUJ - Dubois Regional Airport (22 nm SE)
6G1 - Titusville Airport (24 nm NW)
KFKL - Venango Regional Airport (25 nm W)
N35 - Punxsutawney Municipal Airport (30 nm SE)
 
Loc | Ops | Rwys | IFR | FBO | Links
Com | Nav | Svcs | Stats | Notes
Aerial photo
No photo
 
Sectional chart

 
Airport distance calculator
Flying to Farmington Township Airpark Heliport? Find the distance to fly.

From to 78PN

Sunrise and sunset
Times for 20-Nov-2019
 Local
(UTC-5)
 Zulu
(UTC)
Morning civil twilight06:4311:43
Sunrise07:1312:13
Sunset16:5321:53
Evening civil twilight17:2322:23

Current date and time
Zulu (UTC)  20-Nov-2019 12:31:44
Local (UTC-5)  20-Nov-2019 07:31:44
 
METAR
KDUJ 
22nm SE 
201153Z AUTO VRB06KT 2 1/2SM BR OVC002 02/01 A2999 RMK AO2 SLP170 T00170011 10017 20011 53016
KFKL 
25nm W 
201219Z AUTO 29005KT 1 1/4SM BR OVC004 03/02 A3004 RMK AO2
KOYM 
36nm E 
200934Z AUTO 28004KT 5SM BR OVC004 01/01 A2997 RMK AO2
KBFD 
40nm NE 
201153Z AUTO 33007KT 5SM BR OVC005 02/00 A2998 RMK AO2 SLP168 T00220000 10022 20011 53019
KGKJ 
44nm W 
201153Z AUTO 27007KT 10SM OVC002 03/02 A3003 RMK AO2 SLP181 T00280017 10028 20022 53020 TSNO
TAF
KDUJ 
22nm SE 
201133Z 2012/2112 30005KT 1SM BR OVC003 FM201500 31008KT 5SM BR OVC004 FM201800 31008KT P6SM OVC015 FM210000 29004KT P6SM SCT250
KFKL 
25nm W 
201133Z 2012/2112 28006KT 2SM BR OVC004 FM201500 31006KT 4SM BR OVC004 FM201700 30006KT P6SM OVC015 FM210000 27003KT P6SM SCT250
NOTAMs
Click for the latest NOTAMs
NOTAMs are issued by the DoD/FAA and will open in a separate window not controlled by AirNav.

 

 
 

Would you like to see your business listed on this page?

 If your business provides an interesting product or service to pilots, flight crews, aircraft, or users of the Farmington Township Airpark Heliport, you should consider listing it here.  To start the listing process, click on the button below
 
Add a business
 

Other Pages about Farmington Township Airpark Heliport

Update a link
 
Copyright © AirNav, LLC. All rights reserved. Privacy Policy  Contact